createdAt,value
2023-02-17T00:01:40.590Z,100.00
2023-02-17T00:04:08.688Z,100.00
2023-02-17T00:06:36.905Z,100.00
2023-02-17T00:09:05.171Z,100.00
2023-02-17T00:11:33.629Z,100.00
2023-02-17T00:14:01.940Z,100.00
2023-02-17T00:16:31.069Z,100.00
2023-02-17T00:19:02.980Z,100.00
2023-02-17T00:21:33.155Z,100.00
2023-02-17T00:24:01.661Z,100.00
2023-02-17T00:26:30.284Z,100.00
2023-02-17T00:29:00.974Z,100.00
2023-02-17T00:31:29.217Z,100.00
2023-02-17T00:34:01.915Z,100.00
2023-02-17T00:36:30.196Z,100.00
2023-02-17T00:39:00.067Z,100.00
2023-02-17T00:41:29.790Z,100.00
2023-02-17T00:43:59.310Z,100.00
2023-02-17T00:46:27.888Z,100.00
2023-02-17T00:48:56.384Z,100.00
2023-02-17T00:51:27.033Z,100.00
2023-02-17T00:53:55.164Z,100.00
2023-02-17T00:56:23.374Z,100.00
2023-02-17T00:58:51.513Z,100.00
2023-02-17T01:01:19.909Z,100.00
2023-02-17T01:03:48.103Z,100.00
2023-02-17T01:06:22.989Z,100.00
2023-02-17T01:08:53.025Z,100.00
2023-02-17T01:11:23.334Z,100.00
2023-02-17T01:13:51.760Z,100.00
2023-02-17T01:16:22.781Z,100.00
2023-02-17T01:18:51.064Z,100.00
2023-02-17T01:21:21.346Z,100.00
2023-02-17T01:23:51.050Z,100.00
2023-02-17T01:26:22.450Z,100.00
2023-02-17T01:28:51.936Z,100.00
2023-02-17T01:31:21.801Z,100.00
2023-02-17T01:33:50.240Z,100.00
2023-02-17T01:36:20.084Z,100.00
2023-02-17T01:38:48.515Z,100.00
2023-02-17T01:41:26.719Z,100.00
2023-02-17T01:44:13.929Z,100.00
2023-02-17T01:46:43.605Z,100.00
2023-02-17T01:49:23.632Z,100.00
2023-02-17T01:51:56.409Z,100.00
2023-02-17T01:54:29.624Z,100.00
2023-02-17T01:57:01.701Z,100.00
2023-02-17T01:59:32.359Z,100.00
2023-02-17T02:02:03.948Z,100.00
2023-02-17T02:04:34.843Z,100.00
2023-02-17T02:07:05.104Z,100.00
2023-02-17T02:09:38.109Z,100.00
2023-02-17T02:12:20.381Z,100.00
2023-02-17T02:14:49.898Z,100.00
2023-02-17T02:17:28.591Z,100.00
2023-02-17T02:20:30.133Z,100.00
2023-02-17T02:23:20.386Z,100.00
2023-02-17T02:26:26.970Z,100.00
2023-02-17T02:29:19.996Z,100.00
2023-02-17T02:31:58.220Z,100.00
2023-02-17T02:34:33.116Z,100.00
2023-02-17T02:37:13.674Z,100.00
2023-02-17T02:39:45.910Z,100.00
2023-02-17T02:42:17.345Z,100.00
2023-02-17T02:44:45.681Z,100.00
2023-02-17T02:47:43.379Z,100.00
2023-02-17T02:50:16.156Z,100.00
2023-02-17T02:52:56.757Z,100.00
2023-02-17T02:55:39.905Z,100.00
2023-02-17T02:58:14.135Z,100.00
2023-02-17T03:00:54.212Z,100.00
2023-02-17T03:03:32.946Z,100.00
2023-02-17T03:06:13.160Z,100.00
2023-02-17T03:08:46.536Z,100.00
2023-02-17T03:11:15.908Z,100.00
2023-02-17T03:13:44.009Z,100.00
2023-02-17T03:16:15.835Z,100.00
2023-02-17T03:18:43.938Z,100.00
2023-02-17T03:21:17.521Z,100.00
2023-02-17T03:23:45.667Z,100.00
2023-02-17T03:26:13.832Z,100.00
2023-02-17T03:28:41.950Z,100.00
2023-02-17T03:31:10.161Z,100.00
2023-02-17T03:33:38.321Z,100.00
2023-02-17T03:36:07.538Z,100.00
2023-02-17T03:38:37.201Z,100.00
2023-02-17T03:41:05.870Z,100.00
2023-02-17T03:43:34.122Z,100.00
2023-02-17T03:46:02.620Z,100.00
2023-02-17T03:48:31.058Z,100.00
2023-02-17T03:50:59.160Z,100.00
2023-02-17T03:53:27.307Z,100.00
2023-02-17T03:55:56.833Z,100.00
2023-02-17T03:58:24.975Z,100.00
2023-02-17T04:00:53.328Z,100.00
2023-02-17T04:03:21.522Z,100.00
2023-02-17T04:05:49.636Z,100.00
2023-02-17T04:08:17.803Z,100.00
2023-02-17T04:10:45.915Z,100.00
2023-02-17T04:13:15.452Z,100.00
2023-02-17T04:15:43.617Z,100.00
2023-02-17T04:18:11.757Z,100.00
2023-02-17T04:20:39.918Z,100.00
2023-02-17T04:23:08.207Z,100.00
2023-02-17T04:25:36.644Z,100.00
2023-02-17T04:28:05.563Z,100.00
2023-02-17T04:30:35.657Z,100.00
2023-02-17T04:33:04.132Z,100.00
2023-02-17T04:35:32.718Z,100.00
2023-02-17T04:38:00.832Z,100.00
2023-02-17T04:40:28.943Z,100.00
2023-02-17T04:42:57.075Z,100.00
2023-02-17T04:45:25.238Z,100.00
2023-02-17T04:47:54.798Z,100.00
2023-02-17T04:50:23.603Z,100.00
2023-02-17T04:52:51.791Z,100.00
2023-02-17T04:55:20.074Z,100.00
2023-02-17T04:57:48.245Z,100.00
2023-02-17T05:00:16.813Z,100.00
2023-02-17T05:02:44.967Z,100.00
2023-02-17T05:05:15.469Z,100.00
2023-02-17T05:07:44.033Z,100.00
2023-02-17T05:10:13.035Z,100.00
2023-02-17T05:12:41.392Z,100.00
2023-02-17T05:15:10.562Z,100.00
2023-02-17T05:17:38.710Z,100.00
2023-02-17T05:20:08.954Z,100.00
2023-02-17T05:22:38.888Z,100.00
2023-02-17T05:25:07.693Z,100.00
2023-02-17T05:27:36.574Z,100.00
2023-02-17T05:30:05.898Z,100.00
2023-02-17T05:32:34.024Z,100.00
2023-02-17T05:35:02.181Z,100.00
2023-02-17T05:37:30.350Z,100.00
2023-02-17T05:39:59.886Z,100.00
2023-02-17T05:42:29.130Z,100.00
2023-02-17T05:44:57.451Z,100.00
2023-02-17T05:47:27.647Z,100.00
2023-02-17T05:49:56.120Z,100.00
2023-02-17T05:52:24.373Z,100.00
2023-02-17T05:54:52.480Z,100.00
2023-02-17T05:57:21.977Z,100.00
2023-02-17T05:59:50.176Z,100.00
2023-02-17T06:02:18.339Z,100.00
2023-02-17T06:04:46.607Z,100.00
2023-02-17T06:07:14.773Z,100.00
2023-02-17T06:09:42.960Z,100.00
2023-02-17T06:12:11.467Z,100.00
2023-02-17T06:14:41.008Z,100.00
2023-02-17T06:17:09.210Z,100.00
2023-02-17T06:19:37.416Z,100.00
2023-02-17T06:22:05.679Z,100.00
2023-02-17T06:24:35.357Z,100.00
2023-02-17T06:27:03.643Z,100.00
2023-02-17T06:29:31.887Z,100.00
2023-02-17T06:32:01.707Z,100.00
2023-02-17T06:34:30.204Z,100.00
2023-02-17T06:36:58.383Z,100.00
2023-02-17T06:39:26.563Z,100.00
2023-02-17T06:41:54.990Z,100.00
2023-02-17T06:44:23.534Z,100.00
2023-02-17T06:46:51.780Z,100.00
2023-02-17T06:49:21.559Z,100.00
2023-02-17T06:51:49.897Z,100.00
2023-02-17T06:54:18.121Z,100.00
2023-02-17T06:56:46.373Z,100.00
2023-02-17T06:59:14.654Z,100.00
2023-02-17T07:01:43.035Z,100.00
2023-02-17T07:04:11.200Z,100.00
2023-02-17T07:06:40.728Z,100.00
2023-02-17T07:09:08.865Z,100.00
2023-02-17T07:11:37.106Z,100.00
2023-02-17T07:14:05.249Z,100.00
2023-02-17T07:16:33.461Z,100.00
2023-02-17T07:19:01.649Z,100.00
2023-02-17T07:21:29.823Z,100.00
2023-02-17T07:23:59.372Z,100.00
2023-02-17T07:26:27.501Z,100.00
2023-02-17T07:28:55.714Z,99.42
2023-02-17T07:31:24.003Z,97.19
2023-02-17T07:33:53.462Z,93.87
2023-02-17T07:36:21.678Z,91.66
2023-02-17T07:38:50.333Z,89.48
2023-02-17T07:41:21.741Z,87.30
2023-02-17T07:43:50.328Z,86.10
2023-02-17T07:46:18.656Z,84.13
2023-02-17T07:48:47.087Z,83.97
2023-02-17T07:51:17.286Z,82.16
2023-02-17T07:53:45.986Z,82.88
2023-02-17T07:56:16.878Z,78.86
2023-02-17T07:58:47.383Z,77.43
2023-02-17T08:01:17.366Z,76.50
2023-02-17T08:03:46.322Z,74.86
2023-02-17T08:06:16.410Z,73.03
2023-02-17T08:09:02.277Z,71.03
2023-02-17T08:11:49.854Z,70.51
2023-02-17T08:14:21.628Z,68.79
2023-02-17T08:16:49.843Z,67.38
2023-02-17T08:19:18.146Z,67.02
2023-02-17T08:21:46.505Z,66.23
2023-02-17T08:24:16.345Z,65.21
2023-02-17T08:26:44.634Z,63.78
2023-02-17T08:29:12.804Z,61.82
2023-02-17T08:31:43.336Z,60.09
2023-02-17T08:34:13.950Z,59.21
2023-02-17T08:36:42.295Z,57.69
2023-02-17T08:39:14.306Z,55.99
2023-02-17T08:41:42.974Z,55.18
2023-02-17T08:44:12.826Z,53.92
2023-02-17T08:46:43.088Z,53.49
2023-02-17T08:49:11.607Z,52.58
2023-02-17T08:51:40.242Z,51.90
2023-02-17T08:54:10.390Z,52.04
2023-02-17T08:56:40.187Z,49.24
2023-02-17T08:59:09.947Z,49.36
2023-02-17T09:01:39.441Z,48.30
2023-02-17T09:04:10.903Z,47.83
2023-02-17T09:06:41.513Z,46.57
2023-02-17T09:09:12.007Z,46.02
2023-02-17T09:11:40.667Z,45.78
2023-02-17T09:14:09.453Z,46.29
2023-02-17T09:16:41.129Z,45.16
2023-02-17T09:19:11.107Z,42.54
2023-02-17T09:21:39.403Z,42.28
2023-02-17T09:24:07.855Z,43.19
2023-02-17T09:26:36.859Z,43.79
2023-02-17T09:29:05.440Z,44.07
2023-02-17T09:31:35.814Z,44.10
2023-02-17T09:34:04.410Z,41.27
2023-02-17T09:36:36.311Z,39.56
2023-02-17T09:39:04.885Z,39.17
2023-02-17T09:41:39.345Z,37.91
2023-02-17T09:44:13.511Z,37.23
2023-02-17T09:47:00.644Z,36.83
2023-02-17T09:49:36.417Z,35.82
2023-02-17T09:52:11.652Z,35.62
2023-02-17T09:54:48.006Z,35.17
2023-02-17T09:57:20.880Z,33.86
2023-02-17T09:59:52.569Z,33.55
2023-02-17T10:02:29.011Z,32.12
2023-02-17T10:05:01.889Z,31.44
2023-02-17T10:07:37.365Z,32.09
2023-02-17T10:10:09.996Z,31.74
2023-02-17T10:12:44.288Z,31.06
2023-02-17T10:15:18.191Z,32.50
2023-02-17T10:17:53.035Z,31.27
2023-02-17T10:20:25.122Z,31.70
2023-02-17T10:22:59.239Z,31.73
2023-02-17T10:25:42.733Z,30.71
2023-02-17T10:28:17.654Z,29.76
2023-02-17T10:30:53.269Z,29.04
2023-02-17T10:33:27.128Z,30.03
2023-02-17T10:35:59.530Z,27.25
2023-02-17T10:38:40.871Z,25.36
2023-02-17T10:41:13.962Z,23.37
2023-02-17T10:43:44.183Z,23.52
2023-02-17T10:46:15.859Z,24.64
2023-02-17T10:48:48.369Z,27.86
2023-02-17T10:51:19.310Z,29.26
2023-02-17T10:53:52.467Z,32.33
2023-02-17T10:56:24.749Z,32.83
2023-02-17T10:58:58.001Z,32.50
2023-02-17T11:01:26.949Z,33.13
2023-02-17T11:04:03.605Z,32.85
2023-02-17T11:06:33.592Z,32.05
2023-02-17T11:09:06.043Z,31.74
2023-02-17T11:11:36.907Z,31.39
2023-02-17T11:14:14.743Z,31.71
2023-02-17T11:16:47.127Z,32.08
2023-02-17T11:19:25.603Z,31.64
2023-02-17T11:21:56.474Z,31.84
2023-02-17T11:24:26.504Z,33.09
2023-02-17T11:27:00.011Z,32.80
2023-02-17T11:29:29.141Z,32.93
2023-02-17T11:31:59.359Z,32.39
2023-02-17T11:34:29.611Z,31.81
2023-02-17T11:37:03.856Z,31.87
2023-02-17T11:39:39.661Z,31.74
2023-02-17T11:42:16.497Z,30.43
2023-02-17T11:44:44.776Z,30.85
2023-02-17T11:47:24.528Z,31.66
2023-02-17T11:50:04.763Z,31.29
2023-02-17T11:52:54.340Z,31.63
2023-02-17T11:55:36.625Z,29.82
2023-02-17T11:58:19.020Z,30.36
2023-02-17T12:00:55.661Z,30.65
2023-02-17T12:03:49.194Z,31.12
2023-02-17T12:06:22.334Z,31.79
2023-02-17T12:09:04.962Z,31.90
2023-02-17T12:11:44.441Z,33.04
2023-02-17T12:14:32.824Z,31.20
2023-02-17T12:17:13.859Z,31.53
2023-02-17T12:19:55.842Z,31.96
2023-02-17T12:22:31.249Z,32.37
2023-02-17T12:25:25.815Z,33.38
2023-02-17T12:28:11.665Z,32.25
2023-02-17T12:30:51.303Z,31.18
2023-02-17T12:33:37.900Z,32.26
2023-02-17T12:36:09.350Z,32.55
2023-02-17T12:38:42.943Z,32.46
2023-02-17T12:41:17.799Z,33.59
2023-02-17T12:43:51.364Z,34.13
2023-02-17T12:46:24.875Z,33.81
2023-02-17T12:48:57.303Z,33.52
2023-02-17T12:51:30.594Z,33.69
2023-02-17T12:54:06.031Z,34.01
2023-02-17T12:57:04.293Z,34.73
2023-02-17T12:59:37.080Z,31.97
2023-02-17T13:02:07.614Z,31.45
2023-02-17T13:04:36.633Z,30.07
2023-02-17T13:07:26.511Z,31.27
2023-02-17T13:09:56.785Z,31.81
2023-02-17T13:12:35.587Z,32.01
2023-02-17T13:15:09.503Z,32.11
2023-02-17T13:17:41.165Z,32.36
2023-02-17T13:20:39.951Z,32.00
2023-02-17T13:23:12.044Z,32.05
2023-02-17T13:25:40.721Z,31.04
2023-02-17T13:28:21.069Z,32.49
2023-02-17T13:30:52.486Z,32.41
2023-02-17T13:33:32.181Z,32.91
2023-02-17T13:36:00.425Z,34.47
2023-02-17T13:38:30.650Z,32.66
2023-02-17T13:41:01.836Z,33.53
2023-02-17T13:43:31.768Z,33.79
2023-02-17T13:46:04.224Z,34.32
2023-02-17T13:48:34.251Z,34.78
2023-02-17T13:51:06.072Z,35.50
2023-02-17T13:53:37.695Z,34.68
2023-02-17T13:56:08.674Z,35.81
2023-02-17T13:58:39.223Z,35.31
2023-02-17T14:01:16.301Z,36.31
2023-02-17T14:03:50.771Z,35.73
2023-02-17T14:06:28.145Z,35.90
2023-02-17T14:08:56.631Z,35.25
2023-02-17T14:11:27.055Z,36.01
2023-02-17T14:13:57.987Z,37.41
2023-02-17T14:16:31.204Z,36.50
2023-02-17T14:19:03.799Z,36.74
2023-02-17T14:21:32.426Z,37.54
2023-02-17T14:24:02.536Z,39.57
2023-02-17T14:26:33.794Z,39.23
2023-02-17T14:29:03.668Z,38.56
2023-02-17T14:31:40.008Z,38.37
2023-02-17T14:34:13.966Z,39.75
2023-02-17T14:36:42.790Z,40.18
2023-02-17T14:39:16.242Z,39.33
2023-02-17T14:41:45.288Z,40.30
2023-02-17T14:44:13.359Z,39.56
2023-02-17T14:46:42.878Z,40.19
2023-02-17T14:49:11.367Z,41.10
2023-02-17T14:51:40.544Z,42.05
2023-02-17T14:54:15.917Z,41.24
2023-02-17T14:56:48.996Z,40.91
2023-02-17T14:59:18.055Z,43.42
2023-02-17T15:01:47.696Z,43.71
2023-02-17T15:04:16.033Z,43.26
2023-02-17T15:06:46.504Z,42.28
2023-02-17T15:09:18.116Z,43.18
2023-02-17T15:11:49.031Z,44.46
2023-02-17T15:14:19.546Z,47.32
2023-02-17T15:16:49.961Z,47.89
2023-02-17T15:19:19.776Z,47.81
2023-02-17T15:21:50.683Z,48.33
2023-02-17T15:24:26.276Z,50.22
2023-02-17T15:26:56.829Z,49.85
2023-02-17T15:29:27.488Z,50.41
2023-02-17T15:31:58.800Z,50.45
2023-02-17T15:34:31.585Z,50.33
2023-02-17T15:37:00.224Z,51.48
2023-02-17T15:39:29.725Z,53.10
2023-02-17T15:42:05.672Z,54.36
2023-02-17T15:44:41.476Z,54.94
2023-02-17T15:47:17.549Z,53.70
2023-02-17T15:49:46.780Z,55.24
2023-02-17T15:52:19.430Z,56.24
2023-02-17T15:54:48.414Z,56.52
2023-02-17T15:57:22.397Z,57.61
2023-02-17T15:59:51.762Z,58.25
2023-02-17T16:02:24.486Z,58.82
2023-02-17T16:04:53.641Z,59.22
2023-02-17T16:07:22.177Z,59.61
2023-02-17T16:09:50.603Z,59.54
2023-02-17T16:12:26.638Z,59.45
2023-02-17T16:14:55.919Z,60.54
2023-02-17T16:17:27.521Z,61.55
2023-02-17T16:19:56.727Z,61.34
2023-02-17T16:22:25.613Z,62.84
2023-02-17T16:24:53.733Z,62.08
2023-02-17T16:27:21.996Z,61.61
2023-02-17T16:29:51.797Z,62.09
2023-02-17T16:32:21.444Z,63.60
2023-02-17T16:34:52.058Z,62.86
2023-02-17T16:37:20.977Z,62.73
2023-02-17T16:39:49.776Z,64.26
2023-02-17T16:42:18.546Z,64.84
2023-02-17T16:44:50.144Z,66.01
2023-02-17T16:47:22.813Z,66.55
2023-02-17T16:49:54.830Z,65.61
2023-02-17T16:52:26.684Z,65.45
2023-02-17T16:54:56.407Z,66.37
2023-02-17T16:57:26.942Z,66.43
2023-02-17T16:59:56.226Z,65.90
2023-02-17T17:02:25.372Z,64.98
2023-02-17T17:04:57.052Z,67.19
2023-02-17T17:07:28.127Z,67.55
2023-02-17T17:10:15.346Z,68.70
2023-02-17T17:12:45.255Z,69.21
2023-02-17T17:15:14.434Z,70.01
2023-02-17T17:17:46.549Z,69.94
2023-02-17T17:20:20.404Z,70.16
2023-02-17T17:22:49.663Z,70.21
2023-02-17T17:25:18.596Z,70.90
2023-02-17T17:27:47.479Z,70.96
2023-02-17T17:30:21.284Z,70.72
2023-02-17T17:32:50.440Z,70.81
2023-02-17T17:35:22.795Z,70.80
2023-02-17T17:37:52.899Z,72.42
2023-02-17T17:40:24.528Z,72.72
2023-02-17T17:42:56.781Z,73.03
2023-02-17T17:45:26.611Z,73.22
2023-02-17T17:47:55.936Z,73.54
2023-02-17T17:50:27.442Z,73.79
2023-02-17T17:52:56.522Z,74.18
2023-02-17T17:55:29.472Z,74.24
2023-02-17T17:57:59.303Z,74.06
2023-02-17T18:00:30.573Z,74.20
2023-02-17T18:03:00.704Z,74.36
2023-02-17T18:05:33.416Z,75.34
2023-02-17T18:08:02.900Z,75.61
2023-02-17T18:10:32.646Z,76.33
2023-02-17T18:13:02.204Z,77.67
2023-02-17T18:15:31.380Z,77.86
2023-02-17T18:18:00.527Z,78.25
2023-02-17T18:20:33.033Z,78.58
2023-02-17T18:23:03.364Z,78.68
2023-02-17T18:25:38.468Z,78.50
2023-02-17T18:28:09.003Z,77.08
2023-02-17T18:30:39.758Z,78.18
2023-02-17T18:33:10.641Z,78.33
2023-02-17T18:35:43.968Z,79.34
2023-02-17T18:38:15.162Z,79.45
2023-02-17T18:40:44.748Z,80.38
2023-02-17T18:43:18.282Z,79.38
2023-02-17T18:45:50.730Z,79.84
2023-02-17T18:48:20.622Z,81.38
2023-02-17T18:50:54.352Z,81.15
2023-02-17T18:53:24.259Z,81.85
2023-02-17T18:55:54.854Z,82.25
2023-02-17T18:58:24.920Z,83.26
2023-02-17T19:00:54.766Z,83.16
2023-02-17T19:03:24.041Z,83.57
2023-02-17T19:05:56.312Z,84.23
2023-02-17T19:08:26.217Z,84.86
2023-02-17T19:10:55.374Z,84.89
2023-02-17T19:13:24.501Z,85.10
2023-02-17T19:15:54.123Z,85.73
2023-02-17T19:18:23.599Z,85.36
2023-02-17T19:20:56.565Z,84.21
2023-02-17T19:23:27.836Z,84.89
2023-02-17T19:26:00.143Z,85.26
2023-02-17T19:28:29.886Z,84.98
2023-02-17T19:31:00.237Z,85.22
2023-02-17T19:33:31.786Z,85.60
2023-02-17T19:36:07.602Z,86.17
2023-02-17T19:38:38.397Z,86.89
2023-02-17T19:41:10.577Z,87.29
2023-02-17T19:43:41.038Z,87.06
2023-02-17T19:46:13.776Z,87.35
2023-02-17T19:48:45.953Z,86.85
2023-02-17T19:51:20.510Z,87.53
2023-02-17T19:53:50.355Z,88.96
2023-02-17T19:56:24.764Z,87.64
2023-02-17T19:58:55.988Z,85.70
2023-02-17T20:01:27.780Z,85.49
2023-02-17T20:04:01.928Z,85.63
2023-02-17T20:06:35.639Z,86.87
2023-02-17T20:09:09.357Z,87.99
2023-02-17T20:11:39.274Z,88.05
2023-02-17T20:14:11.586Z,87.87
2023-02-17T20:16:43.186Z,88.46
2023-02-17T20:19:12.181Z,89.44
2023-02-17T20:21:45.462Z,89.52
2023-02-17T20:24:16.117Z,89.44
2023-02-17T20:26:47.961Z,89.20
2023-02-17T20:29:19.498Z,89.49
2023-02-17T20:31:49.819Z,90.06
2023-02-17T20:34:29.622Z,89.82
2023-02-17T20:37:04.423Z,90.20
2023-02-17T20:39:37.314Z,90.78
2023-02-17T20:42:06.128Z,91.50
2023-02-17T20:44:36.206Z,92.03
2023-02-17T20:47:06.167Z,92.17
2023-02-17T20:49:37.282Z,92.92
2023-02-17T20:52:09.001Z,92.34
2023-02-17T20:54:39.390Z,92.81
2023-02-17T20:57:15.766Z,92.55
2023-02-17T20:59:47.095Z,92.81
2023-02-17T21:02:16.840Z,93.44
2023-02-17T21:04:46.849Z,93.97
2023-02-17T21:07:17.929Z,95.37
2023-02-17T21:09:47.908Z,95.01
2023-02-17T21:12:17.069Z,96.81
2023-02-17T21:14:47.442Z,96.67
2023-02-17T21:17:17.582Z,97.64
2023-02-17T21:19:48.625Z,97.65
2023-02-17T21:22:19.267Z,98.01
2023-02-17T21:24:49.087Z,98.16
2023-02-17T21:27:18.256Z,98.97
2023-02-17T21:29:47.514Z,98.64
2023-02-17T21:32:16.394Z,98.64
2023-02-17T21:34:45.377Z,99.07
2023-02-17T21:37:14.492Z,98.99
2023-02-17T21:39:45.430Z,100.00
2023-02-17T21:42:13.810Z,100.00
2023-02-17T21:44:53.272Z,100.00
2023-02-17T21:47:22.551Z,100.00
2023-02-17T21:49:53.932Z,100.00
2023-02-17T21:52:23.333Z,100.00
2023-02-17T21:54:53.801Z,100.00
2023-02-17T21:57:22.752Z,100.00
2023-02-17T21:59:51.297Z,100.00
2023-02-17T22:02:19.536Z,100.00
2023-02-17T22:04:48.032Z,100.00
2023-02-17T22:07:16.829Z,100.00
2023-02-17T22:09:46.486Z,100.00
2023-02-17T22:12:16.179Z,100.00
2023-02-17T22:14:44.750Z,100.00
2023-02-17T22:17:13.208Z,100.00
2023-02-17T22:19:41.714Z,100.00
2023-02-17T22:22:10.190Z,100.00
2023-02-17T22:24:38.543Z,100.00
2023-02-17T22:27:07.186Z,100.00
2023-02-17T22:29:37.244Z,100.00
2023-02-17T22:32:06.454Z,100.00
2023-02-17T22:34:34.876Z,100.00
2023-02-17T22:37:03.436Z,100.00
2023-02-17T22:39:31.861Z,100.00
2023-02-17T22:42:00.616Z,100.00
2023-02-17T22:44:28.990Z,100.00
2023-02-17T22:46:58.854Z,100.00
2023-02-17T22:49:28.185Z,100.00
2023-02-17T22:51:56.735Z,100.00
2023-02-17T22:54:24.931Z,100.00
2023-02-17T22:56:53.249Z,100.00
2023-02-17T22:59:21.349Z,100.00
2023-02-17T23:01:50.112Z,100.00
2023-02-17T23:04:20.110Z,100.00
2023-02-17T23:06:48.465Z,100.00
2023-02-17T23:09:18.861Z,100.00
2023-02-17T23:11:51.363Z,100.00
2023-02-17T23:14:22.565Z,100.00
2023-02-17T23:16:51.081Z,100.00
2023-02-17T23:19:22.844Z,100.00
2023-02-17T23:21:53.865Z,100.00
2023-02-17T23:24:22.989Z,100.00
2023-02-17T23:26:52.051Z,100.00
2023-02-17T23:29:20.442Z,100.00
2023-02-17T23:31:48.716Z,100.00
2023-02-17T23:34:17.617Z,100.00
2023-02-17T23:36:47.940Z,100.00
2023-02-17T23:39:16.921Z,100.00
2023-02-17T23:41:45.654Z,100.00
2023-02-17T23:44:15.225Z,100.00
2023-02-17T23:46:44.882Z,100.00
2023-02-17T23:49:15.480Z,100.00
2023-02-17T23:51:44.372Z,100.00
2023-02-17T23:54:14.016Z,100.00
2023-02-17T23:56:42.218Z,100.00
2023-02-17T23:59:10.384Z,100.00
